Time;durP1;ratioP1;P1;durP2;ratioP2;P2;SDS_P1;SDS_P2;PMS_P1;PMS_P2;Temp;Humidity;BMP_temperature;BMP_pressure;BME280_temperature;BME280_humidity;BME280_pressure;Samples;Min_cycle;Max_cycle;Signal;HPM_P1;HPM_P2
2021/12/01 00:02:06;;;;;;;0.30;0.30;;;;;;;3.68;100.00;94126.38;5012991;28;20691;-72
2021/12/01 00:04:32;;;;;;;0.30;0.30;;;;;;;3.65;100.00;94138.00;5031205;28;20698;-72
2021/12/01 00:06:58;;;;;;;0.20;0.20;;;;;;;3.65;100.00;94143.41;5023575;28;20630;-72
2021/12/01 00:09:24;;;;;;;0.30;0.30;;;;;;;3.70;100.00;94140.19;5012615;28;20238;-73
2021/12/01 00:11:49;;;;;;;0.20;0.20;;;;;;;3.65;100.00;94121.81;5013265;28;20580;-72
2021/12/01 00:14:15;;;;;;;0.20;0.20;;;;;;;3.67;100.00;94127.53;5030824;28;20682;-72
2021/12/01 00:16:41;;;;;;;0.30;0.30;;;;;;;3.68;100.00;94129.81;5017213;28;20574;-72
2021/12/01 00:19:06;;;;;;;0.30;0.30;;;;;;;3.69;100.00;94122.47;5013000;28;20250;-72
2021/12/01 00:21:32;;;;;;;0.30;0.30;;;;;;;3.83;100.00;94126.69;5024229;28;20226;-72
2021/12/01 00:23:58;;;;;;;0.27;0.27;;;;;;;3.78;100.00;94111.03;5026874;28;20207;-72
2021/12/01 00:26:23;;;;;;;0.30;0.30;;;;;;;3.84;100.00;94126.25;5029164;28;20196;-72
2021/12/01 00:28:49;;;;;;;0.40;0.40;;;;;;;3.86;100.00;94106.91;5018212;28;20215;-73
2021/12/01 00:31:15;;;;;;;0.47;0.30;;;;;;;3.88;100.00;94126.91;5011535;28;20266;-72
2021/12/01 00:33:41;;;;;;;0.73;0.60;;;;;;;3.85;100.00;94116.22;5012304;28;20192;-73
2021/12/01 00:36:13;;;;;;;0.20;0.20;;;;;;;3.84;100.00;94093.84;4997272;28;20200;-71
2021/12/01 00:38:39;;;;;;;0.30;0.30;;;;;;;3.83;100.00;94091.59;5022297;28;20190;-72
2021/12/01 00:41:07;;;;;;;0.87;0.57;;;;;;;3.84;100.00;94111.97;5030316;28;20210;-72
2021/12/01 00:43:36;;;;;;;0.23;0.23;;;;;;;3.93;100.00;94109.41;5028813;28;20202;-72
2021/12/01 00:46:14;;;;;;;0.30;0.30;;;;;;;3.93;100.00;94110.16;5023135;28;20203;-72
2021/12/01 00:48:40;;;;;;;0.20;0.20;;;;;;;3.99;100.00;94086.81;5011933;28;20219;-73
2021/12/01 00:51:06;;;;;;;0.40;0.30;;;;;;;3.96;100.00;94086.91;5031031;28;20740;-73
2021/12/01 00:53:32;;;;;;;0.20;0.20;;;;;;;3.87;100.00;94094.94;5022278;28;20273;-73
2021/12/01 00:55:58;;;;;;;0.47;0.47;;;;;;;3.96;100.00;94079.56;4974611;28;20192;-72
2021/12/01 00:58:23;;;;;;;0.23;0.23;;;;;;;3.98;100.00;94090.72;5019459;28;20195;-72
2021/12/01 01:00:49;;;;;;;0.30;0.30;;;;;;;3.99;100.00;94076.00;5030557;28;20226;-73
2021/12/01 01:03:17;;;;;;;0.50;0.50;;;;;;;3.96;100.00;94074.16;5001487;28;20269;-72
2021/12/01 01:05:43;;;;;;;0.40;0.40;;;;;;;3.95;100.00;94071.91;5023657;28;20200;-72
2021/12/01 01:08:09;;;;;;;1.20;0.50;;;;;;;3.95;100.00;94075.38;5028079;28;20233;-73
2021/12/01 01:18:43;;;;;;;0.47;0.33;;;;;;;4.10;100.00;94068.31;5033001;28;20194;-73
2021/12/01 01:21:10;;;;;;;0.30;0.30;;;;;;;4.16;100.00;94080.06;5025465;28;20212;-73
2021/12/01 01:23:36;;;;;;;0.90;0.70;;;;;;;4.12;100.00;94067.88;5012854;28;20187;-72
2021/12/01 01:26:06;;;;;;;0.73;0.60;;;;;;;4.14;100.00;94060.84;5030768;28;20191;-73
2021/12/01 01:28:31;;;;;;;0.53;0.50;;;;;;;4.17;100.00;94056.53;5029889;28;20215;-73
2021/12/01 01:30:58;;;;;;;0.20;0.20;;;;;;;4.10;100.00;94057.50;5035672;28;20214;-73
2021/12/01 01:33:24;;;;;;;0.30;0.30;;;;;;;4.10;100.00;94033.19;5019669;28;20644;-73
2021/12/01 01:35:50;;;;;;;0.10;0.10;;;;;;;4.14;100.00;94038.50;5012708;28;20314;-72
2021/12/01 01:38:16;;;;;;;0.30;0.30;;;;;;;4.18;100.00;94045.28;5005992;28;20210;-73
2021/12/01 01:40:42;;;;;;;0.20;0.20;;;;;;;4.12;100.00;94030.81;5000519;28;20249;-72
2021/12/01 01:43:08;;;;;;;0.67;0.40;;;;;;;4.20;100.00;94039.44;5010472;28;20523;-73
2021/12/01 01:45:34;;;;;;;0.30;0.30;;;;;;;4.12;100.00;94036.22;5020146;28;20552;-73
2021/12/01 01:48:03;;;;;;;0.20;0.20;;;;;;;4.19;100.00;94027.13;5018018;28;20676;-71
2021/12/01 01:50:35;;;;;;;0.23;0.23;;;;;;;4.21;100.00;94036.28;5013262;28;20227;-72
2021/12/01 01:53:25;;;;;;;0.20;0.20;;;;;;;4.32;100.00;94033.22;5013533;28;20272;-72
2021/12/01 01:55:54;;;;;;;0.10;0.10;;;;;;;4.29;100.00;94039.53;5034625;28;20183;-71
2021/12/01 01:58:21;;;;;;;0.20;0.20;;;;;;;4.31;100.00;94029.75;5034557;28;20179;-72
2021/12/01 02:01:03;;;;;;;2.03;0.20;;;;;;;4.28;100.00;94029.88;5025988;28;20255;-72
2021/12/01 02:03:29;;;;;;;0.20;0.20;;;;;;;4.27;100.00;94025.69;5028899;28;20187;-72
2021/12/01 02:05:56;;;;;;;0.20;0.20;;;;;;;4.37;100.00;94029.97;4997356;28;20989;-72
2021/12/01 02:08:29;;;;;;;0.20;0.20;;;;;;;4.34;100.00;94014.63;5023300;28;20265;-72
2021/12/01 02:10:57;;;;;;;0.40;0.20;;;;;;;4.38;100.00;94020.66;5034178;28;20207;-72
2021/12/01 02:13:22;;;;;;;0.10;0.10;;;;;;;4.39;100.00;94009.44;5034339;28;20205;-72
2021/12/01 02:15:50;;;;;;;0.20;0.20;;;;;;;4.39;100.00;94004.03;5023943;28;20648;-72
2021/12/01 02:18:17;;;;;;;0.20;0.20;;;;;;;4.34;100.00;94015.41;5029941;28;20191;-72
2021/12/01 02:21:01;;;;;;;0.13;0.13;;;;;;;4.41;100.00;94009.72;5019943;28;20289;-72
2021/12/01 02:23:27;;;;;;;0.17;0.17;;;;;;;4.43;100.00;94009.31;5015761;28;20348;-72
2021/12/01 02:25:52;;;;;;;0.10;0.10;;;;;;;4.45;100.00;94010.38;5015666;28;20529;-73
2021/12/01 02:28:18;;;;;;;0.17;0.17;;;;;;;4.45;100.00;94002.25;5053677;28;20272;-72
2021/12/01 02:30:44;;;;;;;0.20;0.20;;;;;;;4.44;100.00;93995.34;5041137;28;20214;-72
2021/12/01 02:33:10;;;;;;;0.10;0.10;;;;;;;4.44;100.00;93978.38;5032440;28;20253;-72
2021/12/01 02:35:35;;;;;;;0.20;0.20;;;;;;;4.46;100.00;93974.03;5013688;28;20261;-73
2021/12/01 02:38:04;;;;;;;0.20;0.20;;;;;;;4.46;100.00;93967.88;5036071;28;20217;-72
2021/12/01 02:40:31;;;;;;;0.17;0.17;;;;;;;4.44;100.00;93972.97;5015552;28;20195;-72
2021/12/01 02:42:56;;;;;;;2.03;0.17;;;;;;;4.49;100.00;93956.94;5020811;28;20561;-72
2021/12/01 02:45:22;;;;;;;0.10;0.10;;;;;;;4.42;100.00;93964.53;5034135;28;20209;-73
2021/12/01 02:47:48;;;;;;;0.20;0.20;;;;;;;4.46;100.00;93957.81;5028990;28;20227;-72
2021/12/01 02:50:13;;;;;;;0.20;0.20;;;;;;;4.51;100.00;93951.09;5046078;28;20281;-73
2021/12/01 02:52:39;;;;;;;0.10;0.10;;;;;;;4.45;100.00;93939.31;5028767;28;20278;-72
2021/12/01 02:55:07;;;;;;;0.13;0.13;;;;;;;4.48;100.00;93930.34;5045428;28;20203;-72
2021/12/01 02:57:45;;;;;;;1.60;0.20;;;;;;;4.46;100.00;93946.25;5045625;28;20222;-72
2021/12/01 03:00:11;;;;;;;0.20;0.20;;;;;;;4.43;100.00;93945.16;5025358;28;20225;-72
2021/12/01 03:02:38;;;;;;;1.60;0.30;;;;;;;4.43;100.00;93966.06;5049831;28;20249;-72
2021/12/01 03:05:05;;;;;;;0.10;0.10;;;;;;;4.50;100.00;93946.84;5045619;28;20200;-73
2021/12/01 03:07:32;;;;;;;0.10;0.10;;;;;;;4.45;100.00;93934.69;5043933;28;20311;-72
2021/12/01 03:09:58;;;;;;;0.20;0.20;;;;;;;4.44;100.00;93943.22;5042734;28;20193;-72
2021/12/01 03:12:28;;;;;;;0.10;0.10;;;;;;;4.40;100.00;93935.25;5022948;28;20222;-72
2021/12/01 03:14:53;;;;;;;0.20;0.20;;;;;;;4.37;100.00;93922.63;5035100;28;20195;-73
2021/12/01 03:17:19;;;;;;;0.20;0.20;;;;;;;4.35;100.00;93929.66;5036686;28;20237;-72
2021/12/01 03:19:45;;;;;;;0.20;0.20;;;;;;;4.39;100.00;93936.44;5032131;28;20206;-73
2021/12/01 03:22:14;;;;;;;0.10;0.10;;;;;;;4.42;100.00;93932.88;5030742;28;20325;-73
2021/12/01 03:24:46;;;;;;;0.77;0.30;;;;;;;4.51;100.00;93927.50;5033033;28;20219;-72
2021/12/01 03:27:12;;;;;;;0.10;0.10;;;;;;;4.36;100.00;93918.38;5020984;28;20207;-73
2021/12/01 03:29:38;;;;;;;0.10;0.10;;;;;;;4.35;100.00;93940.47;5032285;28;20218;-73
2021/12/01 03:32:04;;;;;;;0.20;0.20;;;;;;;4.49;100.00;93923.72;5013819;28;20358;-73
2021/12/01 03:34:29;;;;;;;0.20;0.20;;;;;;;4.43;100.00;93914.69;4999110;28;20692;-73
2021/12/01 03:36:56;;;;;;;0.20;0.20;;;;;;;4.42;100.00;93913.94;5025171;28;20298;-73
2021/12/01 03:39:23;;;;;;;4.07;0.30;;;;;;;4.45;100.00;93891.44;5039361;28;20656;-72
2021/12/01 03:41:49;;;;;;;0.20;0.20;;;;;;;4.40;100.00;93904.75;5013868;28;20583;-72
2021/12/01 03:44:14;;;;;;;0.20;0.20;;;;;;;4.42;100.00;93903.13;5021105;28;20207;-72
2021/12/01 03:46:40;;;;;;;0.20;0.20;;;;;;;4.51;100.00;93881.53;5031590;28;20690;-72
2021/12/01 03:49:06;;;;;;;0.57;0.27;;;;;;;4.51;100.00;93880.81;5017327;28;20210;-72
2021/12/01 03:51:31;;;;;;;0.20;0.20;;;;;;;4.55;100.00;93887.56;5041460;28;20238;-72
2021/12/01 03:53:57;;;;;;;0.20;0.20;;;;;;;4.53;100.00;93887.25;5015911;28;20620;-72
2021/12/01 03:56:25;;;;;;;0.30;0.20;;;;;;;4.58;100.00;93864.31;5017643;28;20616;-72
2021/12/01 03:58:53;;;;;;;0.20;0.20;;;;;;;4.57;100.00;93865.50;5021258;28;20270;-71
2021/12/01 04:01:19;;;;;;;0.20;0.20;;;;;;;4.61;100.00;93866.88;5020554;28;20295;-72
2021/12/01 04:03:44;;;;;;;0.20;0.20;;;;;;;4.61;100.00;93868.84;5010444;28;20195;-72
2021/12/01 04:06:10;;;;;;;0.20;0.20;;;;;;;4.66;100.00;93850.09;5012392;28;20640;-72
2021/12/01 04:08:36;;;;;;;0.20;0.20;;;;;;;4.63;100.00;93861.03;5022899;28;20692;-72
2021/12/01 04:11:01;;;;;;;0.20;0.20;;;;;;;4.58;100.00;93845.38;5031483;28;20899;-72
2021/12/01 04:13:27;;;;;;;0.20;0.20;;;;;;;4.60;100.00;93841.03;5021902;28;20544;-72
2021/12/01 04:15:53;;;;;;;0.67;0.20;;;;;;;4.60;100.00;93841.03;5011795;28;20540;-72
2021/12/01 04:18:18;;;;;;;0.20;0.20;;;;;;;4.75;100.00;93844.69;5029763;28;20188;-72
2021/12/01 04:20:44;;;;;;;0.20;0.20;;;;;;;4.69;100.00;93837.63;5013369;28;20582;-72
2021/12/01 04:23:10;;;;;;;0.20;0.20;;;;;;;4.74;100.00;93828.91;5031017;28;20199;-72
2021/12/01 04:25:36;;;;;;;0.20;0.20;;;;;;;4.72;100.00;93832.06;5025090;28;20196;-71
2021/12/01 04:28:02;;;;;;;0.53;0.10;;;;;;;4.68;100.00;93826.03;5012366;28;20242;-71
2021/12/01 04:30:28;;;;;;;0.20;0.20;;;;;;;4.70;100.00;93822.91;5031124;28;20191;-72
2021/12/01 04:32:54;;;;;;;0.20;0.17;;;;;;;4.73;100.00;93800.38;5005279;28;20226;-72
2021/12/01 04:35:23;;;;;;;0.53;0.20;;;;;;;4.72;100.00;93810.44;5012292;28;20191;-72
2021/12/01 04:37:49;;;;;;;0.20;0.20;;;;;;;4.73;100.00;93811.19;5011220;28;20195;-71
2021/12/01 04:40:16;;;;;;;0.20;0.20;;;;;;;4.70;100.00;93799.31;5027855;28;20195;-72
2021/12/01 04:42:43;;;;;;;0.20;0.20;;;;;;;4.74;100.00;93789.13;4992415;28;20245;-72
2021/12/01 04:45:14;;;;;;;0.20;0.20;;;;;;;4.78;100.00;93778.91;5031531;28;20665;-72
2021/12/01 04:47:50;;;;;;;0.30;0.30;;;;;;;4.85;100.00;93786.00;5029985;28;20195;-72
2021/12/01 04:50:19;;;;;;;0.30;0.30;;;;;;;4.85;100.00;93780.59;5031965;28;20197;-72
2021/12/01 04:52:46;;;;;;;0.20;0.20;;;;;;;4.81;100.00;93769.13;5030632;28;20200;-72
2021/12/01 04:55:12;;;;;;;0.27;0.27;;;;;;;4.80;100.00;93754.84;5025598;28;20195;-72
2021/12/01 04:57:42;;;;;;;0.23;0.23;;;;;;;4.78;100.00;93761.94;5028565;28;20202;-72
2021/12/01 05:00:11;;;;;;;0.20;0.20;;;;;;;4.83;100.00;93761.34;5021921;28;20217;-72
2021/12/01 05:02:37;;;;;;;0.20;0.20;;;;;;;4.80;100.00;93765.69;5009673;28;20228;-72
2021/12/01 05:05:03;;;;;;;0.20;0.20;;;;;;;4.87;100.00;93764.63;5027328;28;20222;-73
2021/12/01 05:07:29;;;;;;;0.20;0.20;;;;;;;4.86;100.00;93774.72;5006469;28;20198;-72
2021/12/01 05:09:56;;;;;;;0.20;0.20;;;;;;;4.85;100.00;93767.78;5034628;28;20190;-72
2021/12/01 05:12:21;;;;;;;0.33;0.20;;;;;;;4.84;100.00;93769.00;5023311;28;20276;-72
2021/12/01 05:14:47;;;;;;;0.20;0.20;;;;;;;4.80;100.00;93770.34;4994866;28;20192;-72
2021/12/01 05:17:13;;;;;;;2.63;0.50;;;;;;;4.81;100.00;93771.84;4993938;28;20227;-72
2021/12/01 05:19:38;;;;;;;0.20;0.20;;;;;;;4.79;100.00;93772.28;4978468;28;20192;-71
2021/12/01 05:22:05;;;;;;;0.20;0.20;;;;;;;4.82;100.00;93766.00;5024130;28;20210;-72
2021/12/01 05:24:32;;;;;;;0.20;0.20;;;;;;;4.83;100.00;93751.28;5032289;28;20763;-72
2021/12/01 05:26:58;;;;;;;0.20;0.20;;;;;;;4.80;100.00;93752.16;5027313;28;20191;-72
2021/12/01 05:29:24;;;;;;;0.20;0.20;;;;;;;4.73;100.00;93755.13;5030881;28;20765;-72
2021/12/01 05:31:52;;;;;;;0.50;0.30;;;;;;;4.67;100.00;93726.44;5031445;28;20293;-72
2021/12/01 05:34:17;;;;;;;0.20;0.20;;;;;;;4.71;100.00;93732.47;5030896;28;20626;-72
2021/12/01 05:36:43;;;;;;;0.20;0.20;;;;;;;4.66;100.00;93725.69;5031255;28;20190;-72
2021/12/01 05:39:09;;;;;;;0.20;0.20;;;;;;;4.64;100.00;93728.09;5028299;28;20207;-72
2021/12/01 05:41:34;;;;;;;0.20;0.20;;;;;;;4.68;100.00;93728.69;4996534;28;20249;-72
2021/12/01 05:44:00;;;;;;;0.20;0.20;;;;;;;4.68;100.00;93742.22;5018292;28;20245;-72
2021/12/01 05:46:27;;;;;;;0.27;0.27;;;;;;;4.60;100.00;93727.47;5034366;28;20289;-72
2021/12/01 05:48:54;;;;;;;0.50;0.50;;;;;;;4.61;100.00;93742.50;5012867;28;20637;-72
2021/12/01 05:51:20;;;;;;;0.20;0.20;;;;;;;4.56;100.00;93748.50;5007472;28;20246;-72
2021/12/01 05:53:46;;;;;;;0.20;0.20;;;;;;;4.57;100.00;93743.84;5039207;28;20656;-72
2021/12/01 05:56:12;;;;;;;0.23;0.23;;;;;;;4.50;100.00;93744.13;5028301;28;20265;-72
2021/12/01 05:58:38;;;;;;;0.77;0.40;;;;;;;4.45;100.00;93731.94;5030053;28;20653;-71
2021/12/01 06:01:03;;;;;;;0.20;0.20;;;;;;;4.36;100.00;93709.56;5026147;28;20219;-72
2021/12/01 06:03:29;;;;;;;0.40;0.40;;;;;;;4.47;100.00;93731.50;5013411;28;20667;-72
2021/12/01 06:05:55;;;;;;;0.47;0.23;;;;;;;4.43;100.00;93710.00;5032008;28;20235;-72
2021/12/01 06:08:21;;;;;;;0.27;0.27;;;;;;;4.34;100.00;93707.28;5022599;28;20299;-72
2021/12/01 06:10:46;;;;;;;0.93;0.30;;;;;;;4.39;100.00;93695.13;5027615;28;20730;-72
2021/12/01 06:13:16;;;;;;;0.20;0.20;;;;;;;4.40;100.00;93702.81;5013026;28;20614;-72
2021/12/01 06:15:43;;;;;;;0.37;0.37;;;;;;;4.32;100.00;93698.13;5016505;28;20203;-72
2021/12/01 06:18:10;;;;;;;0.30;0.30;;;;;;;4.34;100.00;93699.19;4993231;28;20223;-72
2021/12/01 06:20:37;;;;;;;0.30;0.30;;;;;;;4.37;100.00;93703.69;5018555;28;20229;-72
2021/12/01 06:23:03;;;;;;;0.20;0.20;;;;;;;4.32;100.00;93695.41;5009292;28;20192;-71
2021/12/01 06:25:28;;;;;;;0.30;0.30;;;;;;;4.33;100.00;93700.38;4993844;28;20218;-72
2021/12/01 06:27:55;;;;;;;0.40;0.40;;;;;;;4.25;100.00;93680.25;5041048;28;20248;-70
2021/12/01 06:30:22;;;;;;;0.47;0.47;;;;;;;4.27;100.00;93677.09;5038956;28;20199;-72
2021/12/01 06:32:49;;;;;;;4.10;0.60;;;;;;;4.21;100.00;93668.81;5039547;28;20357;-72
2021/12/01 06:35:15;;;;;;;0.73;0.60;;;;;;;4.36;100.00;93661.63;5037596;28;20187;-71
2021/12/01 06:37:41;;;;;;;0.40;0.40;;;;;;;4.34;100.00;93666.00;5012460;28;20241;-72
2021/12/01 06:40:07;;;;;;;0.50;0.50;;;;;;;4.35;100.00;93656.69;5032264;28;20187;-72
2021/12/01 06:42:35;;;;;;;0.30;0.30;;;;;;;4.30;100.00;93662.69;5001364;28;20219;-72
2021/12/01 06:45:05;;;;;;;1.03;0.40;;;;;;;4.34;100.00;93672.16;5019896;28;20199;-72
2021/12/01 06:47:31;;;;;;;0.93;0.40;;;;;;;4.32;100.00;93650.25;5033598;28;20282;-72
2021/12/01 06:49:57;;;;;;;0.27;0.27;;;;;;;4.27;100.00;93641.97;5033748;28;20277;-72
2021/12/01 06:52:22;;;;;;;1.13;0.40;;;;;;;4.28;100.00;93646.91;5015434;28;20218;-72
2021/12/01 06:54:48;;;;;;;1.63;0.47;;;;;;;4.21;100.00;93641.06;5039815;28;20194;-72
2021/12/01 06:57:13;;;;;;;1.13;0.40;;;;;;;4.22;100.00;93646.00;5014583;28;20207;-71
2021/12/01 06:59:39;;;;;;;0.30;0.30;;;;;;;4.19;100.00;93652.28;5025447;28;20604;-72
2021/12/01 07:02:04;;;;;;;1.57;0.53;;;;;;;4.20;100.00;93640.31;5033543;28;20209;-72
2021/12/01 07:04:31;;;;;;;1.27;0.60;;;;;;;4.25;100.00;93636.25;5027969;28;20239;-72
2021/12/01 07:06:58;;;;;;;0.63;0.40;;;;;;;4.16;100.00;93631.56;5042563;28;20207;-72
2021/12/01 07:09:25;;;;;;;1.23;0.50;;;;;;;4.20;100.00;93629.50;5041122;28;20298;-72
2021/12/01 07:11:51;;;;;;;0.40;0.37;;;;;;;4.21;100.00;93641.06;5034547;28;20216;-72
2021/12/01 07:14:17;;;;;;;0.30;0.30;;;;;;;4.23;100.00;93642.09;5011881;28;20202;-71
2021/12/01 07:16:43;;;;;;;0.50;0.50;;;;;;;4.26;100.00;93627.69;5029584;28;20274;-71
2021/12/01 07:19:09;;;;;;;0.20;0.20;;;;;;;4.29;100.00;93634.16;5015309;28;20183;-72
2021/12/01 07:21:35;;;;;;;0.30;0.30;;;;;;;4.31;100.00;93635.19;4998710;28;20207;-71
2021/12/01 07:24:03;;;;;;;0.37;0.20;;;;;;;4.29;100.00;93624.13;5033462;28;20183;-72
2021/12/01 07:26:29;;;;;;;0.30;0.30;;;;;;;4.35;100.00;93630.41;5000931;28;20191;-71
2021/12/01 07:28:55;;;;;;;0.40;0.40;;;;;;;4.46;100.00;93625.31;5007229;28;20261;-72
2021/12/01 07:31:21;;;;;;;0.33;0.33;;;;;;;4.40;100.00;93610.16;5030301;28;20302;-72
2021/12/01 07:33:46;;;;;;;0.30;0.30;;;;;;;4.42;100.00;93613.91;5034481;28;20215;-72
2021/12/01 07:36:13;;;;;;;0.30;0.30;;;;;;;4.43;100.00;93617.38;5027269;28;20659;-71
2021/12/01 07:38:39;;;;;;;1.50;0.40;;;;;;;4.40;100.00;93618.25;5009704;28;20238;-71
2021/12/01 07:41:04;;;;;;;0.30;0.30;;;;;;;4.36;100.00;93621.09;5031455;28;20210;-71
2021/12/01 07:43:30;;;;;;;0.40;0.40;;;;;;;4.47;100.00;93617.97;5032090;28;20277;-71
2021/12/01 07:45:56;;;;;;;1.03;0.30;;;;;;;4.56;100.00;93613.34;5028574;28;20509;-71
2021/12/01 07:48:22;;;;;;;1.10;0.50;;;;;;;4.56;100.00;93602.53;5025667;28;20223;-71
2021/12/01 07:50:47;;;;;;;0.30;0.30;;;;;;;4.55;100.00;93594.84;5000774;28;20217;-71
2021/12/01 07:53:13;;;;;;;0.30;0.30;;;;;;;4.50;100.00;93587.31;5029829;28;20190;-71
2021/12/01 07:55:39;;;;;;;0.30;0.30;;;;;;;4.59;100.00;93587.34;5027382;28;20201;-70
2021/12/01 07:58:04;;;;;;;0.50;0.50;;;;;;;4.63;100.00;93563.63;5027495;28;20246;-70
2021/12/01 08:00:30;;;;;;;0.30;0.30;;;;;;;4.68;100.00;93563.00;5030968;28;20276;-71
2021/12/01 08:02:56;;;;;;;2.23;0.30;;;;;;;4.73;100.00;93557.00;5030850;28;20195;-71
2021/12/01 08:05:22;;;;;;;0.30;0.30;;;;;;;4.76;100.00;93570.38;5030565;28;20206;-69
2021/12/01 08:07:49;;;;;;;0.30;0.30;;;;;;;4.79;100.00;93555.94;5031703;28;20192;-70
2021/12/01 08:10:15;;;;;;;0.50;0.30;;;;;;;4.88;100.00;93558.63;5012769;28;20823;-70
2021/12/01 08:12:41;;;;;;;0.30;0.30;;;;;;;4.94;100.00;93556.06;5032097;28;20207;-70
2021/12/01 08:15:08;;;;;;;0.30;0.30;;;;;;;5.02;100.00;93540.28;5029895;28;20191;-71
2021/12/01 08:17:34;;;;;;;0.30;0.30;;;;;;;5.07;100.00;93553.94;5038776;28;20197;-71
2021/12/01 08:20:00;;;;;;;0.30;0.30;;;;;;;5.22;100.00;93541.28;5026755;28;20569;-70
2021/12/01 08:22:26;;;;;;;0.50;0.40;;;;;;;5.55;100.00;93544.75;5031373;28;20211;-71
2021/12/01 08:24:52;;;;;;;0.43;0.30;;;;;;;5.54;100.00;93529.72;5021466;28;20600;-71
2021/12/01 08:27:17;;;;;;;0.40;0.40;;;;;;;5.64;100.00;93528.47;5009073;28;20223;-71
2021/12/01 08:29:43;;;;;;;0.30;0.30;;;;;;;5.67;100.00;93524.84;5031621;28;20746;-71
2021/12/01 08:32:09;;;;;;;0.30;0.30;;;;;;;5.79;100.00;93525.84;5031166;28;20230;-70
2021/12/01 08:34:34;;;;;;;0.27;0.27;;;;;;;5.83;100.00;93529.16;5014505;28;20187;-70
2021/12/01 08:37:00;;;;;;;0.80;0.67;;;;;;;6.03;100.00;93521.97;5011232;28;20191;-71
2021/12/01 08:39:25;;;;;;;0.30;0.30;;;;;;;5.93;100.00;93525.19;5029961;28;20187;-71
2021/12/01 08:41:51;;;;;;;0.30;0.30;;;;;;;5.82;100.00;93514.09;5013514;28;20766;-70
2021/12/01 08:44:18;;;;;;;0.40;0.40;;;;;;;5.95;100.00;93517.38;5013492;28;20268;-71
2021/12/01 08:46:44;;;;;;;0.73;0.40;;;;;;;5.99;100.00;93521.38;5030065;28;20187;-71
2021/12/01 08:49:09;;;;;;;0.50;0.30;;;;;;;6.01;100.00;93518.22;5041147;28;20714;-71
2021/12/01 08:51:35;;;;;;;0.50;0.50;;;;;;;5.98;100.00;93521.84;4987768;28;20643;-70
2021/12/01 08:54:01;;;;;;;0.40;0.40;;;;;;;5.99;100.00;93524.09;5023799;28;20195;-70
2021/12/01 08:56:27;;;;;;;0.50;0.30;;;;;;;6.02;100.00;93522.44;5026238;28;20526;-70
2021/12/01 08:58:52;;;;;;;0.33;0.30;;;;;;;6.04;100.00;93526.19;5015041;28;20656;-70
2021/12/01 09:01:18;;;;;;;1.80;0.60;;;;;;;5.95;100.00;93523.53;5027935;28;20606;-71
2021/12/01 09:03:44;;;;;;;0.40;0.40;;;;;;;5.98;100.00;93513.72;5025495;28;20656;-70
2021/12/01 09:06:10;;;;;;;0.40;0.37;;;;;;;6.13;100.00;93522.66;5027413;28;20619;-71
2021/12/01 09:08:35;;;;;;;0.50;0.30;;;;;;;6.09;100.00;93505.84;5028690;28;20588;-71
2021/12/01 09:11:03;;;;;;;0.47;0.47;;;;;;;6.17;100.00;93519.78;5028826;28;20979;-71
2021/12/01 09:13:32;;;;;;;0.40;0.40;;;;;;;6.27;100.00;93515.78;5009382;28;20192;-71
2021/12/01 09:15:58;;;;;;;0.43;0.43;;;;;;;6.35;100.00;93517.69;5010720;28;20190;-71
2021/12/01 09:18:27;;;;;;;0.60;0.40;;;;;;;6.51;100.00;93524.66;5012441;28;20186;-71
2021/12/01 09:20:53;;;;;;;0.40;0.40;;;;;;;6.33;100.00;93530.94;5033642;28;20210;-71
2021/12/01 09:23:19;;;;;;;0.43;0.40;;;;;;;6.26;100.00;93517.78;5028705;28;20244;-71
2021/12/01 09:25:46;;;;;;;2.53;0.50;;;;;;;6.23;100.00;93526.81;5026362;28;20285;-71
2021/12/01 09:28:17;;;;;;;1.30;0.40;;;;;;;6.04;100.00;93515.34;5023603;28;20218;-71
2021/12/01 09:30:44;;;;;;;0.77;0.30;;;;;;;6.08;100.00;93520.59;5026806;28;20248;-71
2021/12/01 09:33:10;;;;;;;0.40;0.40;;;;;;;6.05;100.00;93508.72;4991950;28;20215;-71
2021/12/01 09:35:36;;;;;;;0.37;0.37;;;;;;;5.89;100.00;93514.53;5012891;28;20244;-70
2021/12/01 09:38:02;;;;;;;0.50;0.50;;;;;;;5.87;100.00;93518.91;5030844;28;20274;-71
2021/12/01 09:40:28;;;;;;;0.40;0.40;;;;;;;5.86;100.00;93520.88;5014055;28;20194;-70
2021/12/01 09:42:55;;;;;;;0.30;0.30;;;;;;;6.03;100.00;93499.53;5012203;28;20202;-70
2021/12/01 09:45:24;;;;;;;0.30;0.30;;;;;;;6.27;100.00;93504.94;5031337;28;20216;-71
2021/12/01 09:47:50;;;;;;;0.73;0.50;;;;;;;6.45;100.00;93491.25;5028908;28;20282;-71
2021/12/01 09:50:16;;;;;;;0.43;0.43;;;;;;;6.29;100.00;93491.69;5000946;28;20198;-71
2021/12/01 09:52:42;;;;;;;1.13;0.40;;;;;;;6.14;100.00;93484.25;5025646;28;20211;-71
2021/12/01 09:55:12;;;;;;;0.57;0.40;;;;;;;6.14;100.00;93475.38;5010110;28;20221;-70
2021/12/01 09:57:39;;;;;;;0.40;0.40;;;;;;;6.14;100.00;93473.41;5011754;28;20202;-70
2021/12/01 10:00:06;;;;;;;0.30;0.30;;;;;;;6.20;100.00;93475.47;5025806;28;20191;-71
2021/12/01 10:02:32;;;;;;;0.43;0.40;;;;;;;6.28;100.00;93454.94;5031317;28;20309;-71
2021/12/01 10:04:58;;;;;;;0.40;0.40;;;;;;;6.43;100.00;93445.59;5025831;28;20195;-72
2021/12/01 10:07:33;;;;;;;0.40;0.30;;;;;;;6.57;99.19;93452.25;5013252;28;20191;-72
2021/12/01 10:10:07;;;;;;;0.33;0.30;;;;;;;6.56;95.26;93429.84;5013155;28;20218;-72
2021/12/01 10:12:47;;;;;;;0.30;0.30;;;;;;;6.79;94.82;93439.09;5041916;28;20220;-71
2021/12/01 10:15:13;;;;;;;0.20;0.20;;;;;;;6.86;92.83;93433.28;5030069;28;20183;-71
2021/12/01 10:17:39;;;;;;;6.90;0.37;;;;;;;6.88;91.13;93420.00;5025422;28;20206;-71
2021/12/01 10:20:18;;;;;;;0.30;0.30;;;;;;;6.86;90.62;93417.00;5032770;28;20198;-72
2021/12/01 10:23:16;;;;;;;0.50;0.40;;;;;;;6.94;88.81;93410.72;5031583;28;20279;-71
2021/12/01 10:25:43;;;;;;;0.30;0.30;;;;;;;7.16;89.41;93400.22;5026409;28;20209;-71
2021/12/01 10:28:29;;;;;;;0.50;0.50;;;;;;;7.48;86.43;93397.69;5016526;28;20669;-71
2021/12/01 10:30:54;;;;;;;1.43;0.37;;;;;;;7.77;84.33;93382.00;5032000;28;20982;-71
2021/12/01 10:33:20;;;;;;;3.20;0.40;;;;;;;7.75;83.74;93381.00;5015925;28;20202;-71
2021/12/01 10:35:46;;;;;;;0.30;0.30;;;;;;;7.66;84.26;93375.69;5025550;28;20244;-71
2021/12/01 10:38:13;;;;;;;0.23;0.20;;;;;;;7.62;83.26;93370.47;5033841;28;20290;-71
2021/12/01 10:40:40;;;;;;;0.37;0.30;;;;;;;7.56;84.13;93363.47;5014423;28;20681;-71
2021/12/01 10:43:11;;;;;;;0.60;0.40;;;;;;;7.53;84.89;93343.47;5030852;28;20656;-71
2021/12/01 10:45:42;;;;;;;0.30;0.30;;;;;;;7.53;85.25;93337.28;5016579;28;20562;-71
2021/12/01 10:48:11;;;;;;;0.20;0.20;;;;;;;7.57;84.99;93324.25;5031322;28;20633;-71
2021/12/01 10:50:41;;;;;;;0.30;0.30;;;;;;;7.49;86.34;93315.75;5021807;28;20188;-71
2021/12/01 10:53:06;;;;;;;0.23;0.23;;;;;;;7.46;87.05;93315.94;5033532;28;20237;-71
2021/12/01 10:55:33;;;;;;;0.20;0.20;;;;;;;7.52;87.48;93306.63;5013996;28;20605;-71
2021/12/01 10:58:05;;;;;;;0.43;0.20;;;;;;;7.56;88.06;93304.47;5033063;28;20195;-71
2021/12/01 11:00:32;;;;;;;0.23;0.20;;;;;;;7.54;88.41;93306.16;5029639;28;20205;-71
2021/12/01 11:03:08;;;;;;;1.17;0.30;;;;;;;7.50;89.40;93292.78;5019582;28;20186;-71
2021/12/01 11:05:37;;;;;;;0.50;0.33;;;;;;;7.47;89.55;93290.25;5021054;28;20200;-71
2021/12/01 11:08:18;;;;;;;0.27;0.27;;;;;;;7.50;88.79;93297.47;5014771;28;20211;-71
2021/12/01 11:10:57;;;;;;;0.33;0.33;;;;;;;7.51;89.76;93280.72;5015772;28;20276;-71
2021/12/01 11:13:24;;;;;;;0.40;0.40;;;;;;;8.36;92.80;93284.56;5027631;28;20225;-71
2021/12/01 11:15:57;;;;;;;0.80;0.40;;;;;;;7.80;89.54;93279.78;5029675;28;20195;-72
2021/12/01 11:18:28;;;;;;;0.40;0.33;;;;;;;7.80;89.65;93277.81;5032478;28;20209;-71
2021/12/01 11:20:59;;;;;;;0.37;0.37;;;;;;;7.71;89.18;93267.09;5015458;28;20280;-71
2021/12/01 11:23:35;;;;;;;0.30;0.30;;;;;;;7.84;89.67;93270.19;5048660;28;20193;-71
2021/12/01 11:26:06;;;;;;;0.20;0.20;;;;;;;7.86;90.30;93254.16;5033692;28;20846;-71
2021/12/01 11:28:34;;;;;;;0.30;0.30;;;;;;;7.89;91.89;93255.91;5032006;28;20230;-70
2021/12/01 11:31:02;;;;;;;0.63;0.60;;;;;;;7.80;90.65;93247.19;5033318;28;20235;-71
2021/12/01 11:33:30;;;;;;;0.60;0.60;;;;;;;7.79;90.66;93246.41;4998339;28;20203;-71
2021/12/01 11:36:02;;;;;;;0.87;0.70;;;;;;;7.76;90.95;93243.91;5023696;28;20194;-71
2021/12/01 11:38:28;;;;;;;0.63;0.40;;;;;;;7.74;90.62;93244.41;5031065;28;20194;-71
2021/12/01 11:40:56;;;;;;;0.40;0.40;;;;;;;7.80;90.25;93234.34;5014519;28;20226;-71
2021/12/01 11:43:24;;;;;;;0.47;0.40;;;;;;;7.78;90.93;93225.91;5036522;28;20278;-71